sensor_id;sensor_type;location;lat;lon;timestamp;temperature;humidity
20558;DHT22;10437;48.156;11.530;2022-09-12T00:01:05;13.50;99.90
20558;DHT22;10437;48.156;11.530;2022-09-12T00:03:32;13.60;99.90
20558;DHT22;10437;48.156;11.530;2022-09-12T00:10:55;13.50;99.90
20558;DHT22;10437;48.156;11.530;2022-09-12T00:13:21;13.60;99.90
20558;DHT22;10437;48.156;11.530;2022-09-12T00:18:16;13.40;99.90
20558;DHT22;10437;48.156;11.530;2022-09-12T00:20:44;13.50;99.90
20558;DHT22;10437;48.156;11.530;2022-09-12T00:25:42;13.40;99.90
20558;DHT22;10437;48.156;11.530;2022-09-12T00:28:11;13.40;99.90
20558;DHT22;10437;48.156;11.530;2022-09-12T00:30:41;13.30;99.90
20558;DHT22;10437;48.156;11.530;2022-09-12T00:33:08;13.10;99.90
20558;DHT22;10437;48.156;11.530;2022-09-12T00:35:41;13.30;99.90
20558;DHT22;10437;48.156;11.530;2022-09-12T00:45:31;13.20;99.90
20558;DHT22;10437;48.156;11.530;2022-09-12T00:48:01;13.10;99.90
20558;DHT22;10437;48.156;11.530;2022-09-12T00:50:30;13.20;99.90
20558;DHT22;10437;48.156;11.530;2022-09-12T00:53:02;12.90;99.90
20558;DHT22;10437;48.156;11.530;2022-09-12T00:55:32;13.20;99.90
20558;DHT22;10437;48.156;11.530;2022-09-12T00:58:03;13.10;99.90
20558;DHT22;10437;48.156;11.530;2022-09-12T01:00:31;13.10;99.90
20558;DHT22;10437;48.156;11.530;2022-09-12T01:03:01;13.10;99.90
20558;DHT22;10437;48.156;11.530;2022-09-12T01:05:30;13.10;99.90
20558;DHT22;10437;48.156;11.530;2022-09-12T01:07:59;13.50;99.90
20558;DHT22;10437;48.156;11.530;2022-09-12T01:18:02;13.20;99.90
20558;DHT22;10437;48.156;11.530;2022-09-12T01:20:52;13.10;99.90
20558;DHT22;10437;48.156;11.530;2022-09-12T01:26:56;13.00;99.90
20558;DHT22;10437;48.156;11.530;2022-09-12T01:32:34;13.00;99.90
20558;DHT22;10437;48.156;11.530;2022-09-12T01:35:08;13.00;99.90
20558;DHT22;10437;48.156;11.530;2022-09-12T01:37:48;12.90;99.90
20558;DHT22;10437;48.156;11.530;2022-09-12T01:40:22;12.80;99.90
20558;DHT22;10437;48.156;11.530;2022-09-12T01:42:55;12.90;99.90
20558;DHT22;10437;48.156;11.530;2022-09-12T01:45:31;12.90;99.90
20558;DHT22;10437;48.156;11.530;2022-09-12T01:48:06;12.50;99.90
20558;DHT22;10437;48.156;11.530;2022-09-12T01:50:41;13.20;99.90
20558;DHT22;10437;48.156;11.530;2022-09-12T01:53:14;12.80;99.90
20558;DHT22;10437;48.156;11.530;2022-09-12T01:55:45;12.90;99.90
20558;DHT22;10437;48.156;11.530;2022-09-12T01:58:19;12.90;99.90
20558;DHT22;10437;48.156;11.530;2022-09-12T02:00:50;13.00;99.90
20558;DHT22;10437;48.156;11.530;2022-09-12T02:03:23;12.90;99.90
20558;DHT22;10437;48.156;11.530;2022-09-12T02:05:54;12.80;99.90
20558;DHT22;10437;48.156;11.530;2022-09-12T02:08:26;15.00;99.90
20558;DHT22;10437;48.156;11.530;2022-09-12T02:10:55;12.90;99.90
20558;DHT22;10437;48.156;11.530;2022-09-12T02:13:28;12.90;99.90
20558;DHT22;10437;48.156;11.530;2022-09-12T02:15:59;12.80;99.90
20558;DHT22;10437;48.156;11.530;2022-09-12T02:18:32;12.70;99.90
20558;DHT22;10437;48.156;11.530;2022-09-12T02:21:00;12.80;99.90
20558;DHT22;10437;48.156;11.530;2022-09-12T02:23:31;12.60;99.90
20558;DHT22;10437;48.156;11.530;2022-09-12T02:26:02;12.70;99.90
20558;DHT22;10437;48.156;11.530;2022-09-12T02:28:34;12.70;99.90
20558;DHT22;10437;48.156;11.530;2022-09-12T02:31:10;12.70;99.90
20558;DHT22;10437;48.156;11.530;2022-09-12T02:33:47;12.80;99.90
20558;DHT22;10437;48.156;11.530;2022-09-12T02:36:24;12.60;99.90
20558;DHT22;10437;48.156;11.530;2022-09-12T02:38:54;12.70;99.90
20558;DHT22;10437;48.156;11.530;2022-09-12T02:41:21;12.70;99.90
20558;DHT22;10437;48.156;11.530;2022-09-12T02:43:49;12.60;99.90
20558;DHT22;10437;48.156;11.530;2022-09-12T02:46:20;12.60;99.90
20558;DHT22;10437;48.156;11.530;2022-09-12T02:48:49;12.50;99.90
20558;DHT22;10437;48.156;11.530;2022-09-12T02:51:16;12.40;99.90
20558;DHT22;10437;48.156;11.530;2022-09-12T02:53:43;12.50;99.90
20558;DHT22;10437;48.156;11.530;2022-09-12T02:56:13;12.50;99.90
20558;DHT22;10437;48.156;11.530;2022-09-12T03:01:13;12.50;99.90
20558;DHT22;10437;48.156;11.530;2022-09-12T03:03:56;12.50;99.90
20558;DHT22;10437;48.156;11.530;2022-09-12T03:06:32;12.70;99.90
20558;DHT22;10437;48.156;11.530;2022-09-12T03:09:08;12.40;99.90
20558;DHT22;10437;48.156;11.530;2022-09-12T03:12:00;12.40;99.90
20558;DHT22;10437;48.156;11.530;2022-09-12T03:14:40;12.60;99.90
20558;DHT22;10437;48.156;11.530;2022-09-12T03:17:16;12.20;99.90
20558;DHT22;10437;48.156;11.530;2022-09-12T03:19:53;12.30;99.90
20558;DHT22;10437;48.156;11.530;2022-09-12T03:22:27;12.10;99.90
20558;DHT22;10437;48.156;11.530;2022-09-12T03:25:02;12.20;99.90
20558;DHT22;10437;48.156;11.530;2022-09-12T03:27:34;12.30;99.90
20558;DHT22;10437;48.156;11.530;2022-09-12T03:30:04;12.30;99.90
20558;DHT22;10437;48.156;11.530;2022-09-12T03:32:46;12.30;99.90
20558;DHT22;10437;48.156;11.530;2022-09-12T03:35:17;12.30;99.90
20558;DHT22;10437;48.156;11.530;2022-09-12T03:37:44;12.30;99.90
20558;DHT22;10437;48.156;11.530;2022-09-12T03:42:40;12.40;99.90
20558;DHT22;10437;48.156;11.530;2022-09-12T03:45:08;12.30;99.90
20558;DHT22;10437;48.156;11.530;2022-09-12T03:50:03;12.30;99.90
20558;DHT22;10437;48.156;11.530;2022-09-12T03:52:32;12.30;99.90
20558;DHT22;10437;48.156;11.530;2022-09-12T03:59:53;12.10;99.90
20558;DHT22;10437;48.156;11.530;2022-09-12T04:09:43;12.10;99.90
20558;DHT22;10437;48.156;11.530;2022-09-12T04:19:31;12.20;99.90
20558;DHT22;10437;48.156;11.530;2022-09-12T04:26:53;12.10;99.90
20558;DHT22;10437;48.156;11.530;2022-09-12T04:29:21;11.90;99.90
20558;DHT22;10437;48.156;11.530;2022-09-12T04:31:49;12.20;99.90
20558;DHT22;10437;48.156;11.530;2022-09-12T04:39:10;12.10;99.90
20558;DHT22;10437;48.156;11.530;2022-09-12T04:41:38;12.10;99.90
20558;DHT22;10437;48.156;11.530;2022-09-12T04:44:10;11.80;99.90
20558;DHT22;10437;48.156;11.530;2022-09-12T04:46:39;12.00;99.90
20558;DHT22;10437;48.156;11.530;2022-09-12T04:49:06;12.00;99.90
20558;DHT22;10437;48.156;11.530;2022-09-12T04:51:35;11.90;99.90
20558;DHT22;10437;48.156;11.530;2022-09-12T04:54:05;12.00;99.90
20558;DHT22;10437;48.156;11.530;2022-09-12T04:56:35;11.90;99.90
20558;DHT22;10437;48.156;11.530;2022-09-12T04:59:02;12.20;99.90
20558;DHT22;10437;48.156;11.530;2022-09-12T05:01:31;10.00;99.90
20558;DHT22;10437;48.156;11.530;2022-09-12T05:03:59;11.90;99.90
20558;DHT22;10437;48.156;11.530;2022-09-12T05:06:27;12.00;99.90
20558;DHT22;10437;48.156;11.530;2022-09-12T05:08:55;12.00;99.90
20558;DHT22;10437;48.156;11.530;2022-09-12T05:11:24;12.00;99.90
20558;DHT22;10437;48.156;11.530;2022-09-12T05:13:52;12.00;99.90
20558;DHT22;10437;48.156;11.530;2022-09-12T05:16:20;12.00;99.90
20558;DHT22;10437;48.156;11.530;2022-09-12T05:18:48;12.10;99.90
20558;DHT22;10437;48.156;11.530;2022-09-12T05:21:17;12.00;99.90
20558;DHT22;10437;48.156;11.530;2022-09-12T05:23:44;11.80;99.90
20558;DHT22;10437;48.156;11.530;2022-09-12T05:26:13;12.00;99.90
20558;DHT22;10437;48.156;11.530;2022-09-12T05:28:41;12.00;99.90
20558;DHT22;10437;48.156;11.530;2022-09-12T05:31:11;11.90;99.90
20558;DHT22;10437;48.156;11.530;2022-09-12T05:33:40;12.00;99.90
20558;DHT22;10437;48.156;11.530;2022-09-12T05:36:10;12.10;99.90
20558;DHT22;10437;48.156;11.530;2022-09-12T05:41:05;12.10;99.90
20558;DHT22;10437;48.156;11.530;2022-09-12T05:46:00;12.10;99.90
20558;DHT22;10437;48.156;11.530;2022-09-12T05:50:59;12.20;99.90
20558;DHT22;10437;48.156;11.530;2022-09-12T05:53:29;12.20;99.90
20558;DHT22;10437;48.156;11.530;2022-09-12T05:56:04;12.30;99.90
20558;DHT22;10437;48.156;11.530;2022-09-12T05:58:32;12.40;99.90
20558;DHT22;10437;48.156;11.530;2022-09-12T06:01:03;12.40;99.90
20558;DHT22;10437;48.156;11.530;2022-09-12T06:03:32;12.50;99.90
20558;DHT22;10437;48.156;11.530;2022-09-12T06:06:01;12.20;99.90
20558;DHT22;10437;48.156;11.530;2022-09-12T06:08:31;12.80;99.90
20558;DHT22;10437;48.156;11.530;2022-09-12T06:10:59;12.50;99.90
20558;DHT22;10437;48.156;11.530;2022-09-12T06:13:26;12.50;99.90
20558;DHT22;10437;48.156;11.530;2022-09-12T06:25:47;12.50;99.90
20558;DHT22;10437;48.156;11.530;2022-09-12T06:28:14;14.80;99.90
20558;DHT22;10437;48.156;11.530;2022-09-12T06:35:36;13.10;99.90
20558;DHT22;10437;48.156;11.530;2022-09-12T06:42:59;13.30;99.90
20558;DHT22;10437;48.156;11.530;2022-09-12T06:47:54;13.30;99.90
20558;DHT22;10437;48.156;11.530;2022-09-12T06:52:48;13.50;99.90
20558;DHT22;10437;48.156;11.530;2022-09-12T06:55:15;13.70;99.90
20558;DHT22;10437;48.156;11.530;2022-09-12T06:57:42;13.90;99.90
20558;DHT22;10437;48.156;11.530;2022-09-12T07:00:12;13.90;99.90
20558;DHT22;10437;48.156;11.530;2022-09-12T07:05:07;14.50;99.90
20558;DHT22;10437;48.156;11.530;2022-09-12T07:10:03;15.30;99.90
20558;DHT22;10437;48.156;11.530;2022-09-12T07:17:26;16.80;99.90
20558;DHT22;10437;48.156;11.530;2022-09-12T07:34:39;19.30;99.90
20558;DHT22;10437;48.156;11.530;2022-09-12T07:51:52;21.50;99.90
20558;DHT22;10437;48.156;11.530;2022-09-12T08:09:04;22.60;99.90
20558;DHT22;10437;48.156;11.530;2022-09-12T08:11:32;23.10;99.90
20558;DHT22;10437;48.156;11.530;2022-09-12T08:16:29;23.30;99.90
20558;DHT22;10437;48.156;11.530;2022-09-12T08:21:25;23.50;99.20
20558;DHT22;10437;48.156;11.530;2022-09-12T08:23:53;23.40;98.50
20558;DHT22;10437;48.156;11.530;2022-09-12T08:26:22;24.40;99.90
20558;DHT22;10437;48.156;11.530;2022-09-12T08:31:18;23.70;99.10
20558;DHT22;10437;48.156;11.530;2022-09-12T08:36:14;23.10;97.10
20558;DHT22;10437;48.156;11.530;2022-09-12T08:38:42;23.10;97.90
20558;DHT22;10437;48.156;11.530;2022-09-12T08:41:13;23.20;97.90
20558;DHT22;10437;48.156;11.530;2022-09-12T08:44:12;23.10;95.70
20558;DHT22;10437;48.156;11.530;2022-09-12T08:46:50;22.50;99.90
20558;DHT22;10437;48.156;11.530;2022-09-12T08:49:26;23.10;97.60
20558;DHT22;10437;48.156;11.530;2022-09-12T08:51:58;23.50;96.60
20558;DHT22;10437;48.156;11.530;2022-09-12T08:54:29;23.60;96.40
20558;DHT22;10437;48.156;11.530;2022-09-12T08:57:00;23.50;95.60
20558;DHT22;10437;48.156;11.530;2022-09-12T08:59:34;23.40;95.90
20558;DHT22;10437;48.156;11.530;2022-09-12T09:02:07;23.50;95.60
20558;DHT22;10437;48.156;11.530;2022-09-12T09:04:46;23.50;95.40
20558;DHT22;10437;48.156;11.530;2022-09-12T09:07:37;23.50;94.40
20558;DHT22;10437;48.156;11.530;2022-09-12T09:10:17;23.20;95.80
20558;DHT22;10437;48.156;11.530;2022-09-12T09:12:53;22.80;95.70
20558;DHT22;10437;48.156;11.530;2022-09-12T09:15:42;22.30;98.70
20558;DHT22;10437;48.156;11.530;2022-09-12T09:18:19;21.60;98.40
20558;DHT22;10437;48.156;11.530;2022-09-12T09:20:50;21.80;99.30
20558;DHT22;10437;48.156;11.530;2022-09-12T09:23:22;21.00;99.20
20558;DHT22;10437;48.156;11.530;2022-09-12T09:25:55;20.60;99.90
20558;DHT22;10437;48.156;11.530;2022-09-12T09:28:28;20.50;99.90
20558;DHT22;10437;48.156;11.530;2022-09-12T09:30:58;20.30;99.90
20558;DHT22;10437;48.156;11.530;2022-09-12T09:33:30;20.20;99.90
20558;DHT22;10437;48.156;11.530;2022-09-12T09:36:05;19.70;99.90
20558;DHT22;10437;48.156;11.530;2022-09-12T09:38:44;19.90;99.90
20558;DHT22;10437;48.156;11.530;2022-09-12T09:41:22;20.30;99.90
20558;DHT22;10437;48.156;11.530;2022-09-12T09:43:51;20.10;99.90
20558;DHT22;10437;48.156;11.530;2022-09-12T09:48:48;20.90;99.90
20558;DHT22;10437;48.156;11.530;2022-09-12T09:51:16;17.10;99.90
20558;DHT22;10437;48.156;11.530;2022-09-12T09:53:47;19.70;99.90
20558;DHT22;10437;48.156;11.530;2022-09-12T09:56:26;19.80;99.90
20558;DHT22;10437;48.156;11.530;2022-09-12T10:01:23;19.60;99.90
20558;DHT22;10437;48.156;11.530;2022-09-12T10:03:53;19.70;99.90
20558;DHT22;10437;48.156;11.530;2022-09-12T10:06:29;19.60;99.90
20558;DHT22;10437;48.156;11.530;2022-09-12T10:09:18;19.40;99.90
20558;DHT22;10437;48.156;11.530;2022-09-12T10:11:46;17.50;99.90
20558;DHT22;10437;48.156;11.530;2022-09-12T10:14:31;17.30;99.90
20558;DHT22;10437;48.156;11.530;2022-09-12T10:17:02;19.70;99.90
20558;DHT22;10437;48.156;11.530;2022-09-12T10:19:34;19.60;99.90
20558;DHT22;10437;48.156;11.530;2022-09-12T10:22:02;19.80;99.90
20558;DHT22;10437;48.156;11.530;2022-09-12T10:24:32;19.70;99.90
20558;DHT22;10437;48.156;11.530;2022-09-12T10:27:14;19.80;99.90
20558;DHT22;10437;48.156;11.530;2022-09-12T10:29:44;19.80;99.90
20558;DHT22;10437;48.156;11.530;2022-09-12T10:32:21;19.90;99.90
20558;DHT22;10437;48.156;11.530;2022-09-12T10:34:52;19.70;99.90
20558;DHT22;10437;48.156;11.530;2022-09-12T10:37:23;20.00;99.90
20558;DHT22;10437;48.156;11.530;2022-09-12T10:39:54;20.00;99.90
20558;DHT22;10437;48.156;11.530;2022-09-12T10:42:58;20.00;99.90
20558;DHT22;10437;48.156;11.530;2022-09-12T10:45:27;20.20;99.90
20558;DHT22;10437;48.156;11.530;2022-09-12T10:47:57;20.20;99.90
20558;DHT22;10437;48.156;11.530;2022-09-12T10:50:28;20.20;99.90
20558;DHT22;10437;48.156;11.530;2022-09-12T10:53:13;20.20;99.90
20558;DHT22;10437;48.156;11.530;2022-09-12T10:55:44;20.30;99.90
20558;DHT22;10437;48.156;11.530;2022-09-12T10:58:33;20.80;99.90
20558;DHT22;10437;48.156;11.530;2022-09-12T11:01:11;20.40;99.90
20558;DHT22;10437;48.156;11.530;2022-09-12T11:03:58;20.80;99.90
20558;DHT22;10437;48.156;11.530;2022-09-12T11:06:33;20.90;99.90
20558;DHT22;10437;48.156;11.530;2022-09-12T11:09:06;21.10;99.90
20558;DHT22;10437;48.156;11.530;2022-09-12T11:11:46;21.50;99.90
20558;DHT22;10437;48.156;11.530;2022-09-12T11:14:38;22.20;99.90
20558;DHT22;10437;48.156;11.530;2022-09-12T11:17:19;22.50;99.90
20558;DHT22;10437;48.156;11.530;2022-09-12T11:20:18;22.80;99.60
20558;DHT22;10437;48.156;11.530;2022-09-12T11:26:00;23.40;99.90
20558;DHT22;10437;48.156;11.530;2022-09-12T11:28:34;23.40;99.90
20558;DHT22;10437;48.156;11.530;2022-09-12T11:31:15;23.60;98.60
20558;DHT22;10437;48.156;11.530;2022-09-12T11:33:45;23.80;98.10
20558;DHT22;10437;48.156;11.530;2022-09-12T11:36:25;23.70;97.80
20558;DHT22;10437;48.156;11.530;2022-09-12T11:39:08;23.60;95.40
20558;DHT22;10437;48.156;11.530;2022-09-12T11:41:39;23.50;97.60
20558;DHT22;10437;48.156;11.530;2022-09-12T11:44:14;23.60;98.10
20558;DHT22;10437;48.156;11.530;2022-09-12T11:46:43;23.40;99.90
20558;DHT22;10437;48.156;11.530;2022-09-12T11:49:17;23.40;96.30
20558;DHT22;10437;48.156;11.530;2022-09-12T11:51:51;23.40;99.00
20558;DHT22;10437;48.156;11.530;2022-09-12T11:54:23;23.40;96.90
20558;DHT22;10437;48.156;11.530;2022-09-12T11:56:57;23.40;96.40
20558;DHT22;10437;48.156;11.530;2022-09-12T11:59:31;23.40;95.80
20558;DHT22;10437;48.156;11.530;2022-09-12T12:02:01;23.50;96.50
20558;DHT22;10437;48.156;11.530;2022-09-12T12:04:36;23.70;96.30
20558;DHT22;10437;48.156;11.530;2022-09-12T12:07:08;23.50;96.20
20558;DHT22;10437;48.156;11.530;2022-09-12T12:12:20;24.10;99.90
20558;DHT22;10437;48.156;11.530;2022-09-12T12:14:50;24.00;97.30
20558;DHT22;10437;48.156;11.530;2022-09-12T12:17:20;24.30;98.40
20558;DHT22;10437;48.156;11.530;2022-09-12T12:19:56;24.30;96.90
20558;DHT22;10437;48.156;11.530;2022-09-12T12:22:25;24.50;96.40
20558;DHT22;10437;48.156;11.530;2022-09-12T12:25:03;24.60;95.70
20558;DHT22;10437;48.156;11.530;2022-09-12T12:27:52;24.70;96.90
20558;DHT22;10437;48.156;11.530;2022-09-12T12:34:00;24.90;92.70
20558;DHT22;10437;48.156;11.530;2022-09-12T12:36:38;24.80;91.40
20558;DHT22;10437;48.156;11.530;2022-09-12T12:45:58;25.30;91.30
20558;DHT22;10437;48.156;11.530;2022-09-12T12:48:32;24.80;97.80
20558;DHT22;10437;48.156;11.530;2022-09-12T12:51:27;25.20;91.20
20558;DHT22;10437;48.156;11.530;2022-09-12T12:56:28;25.50;91.80
20558;DHT22;10437;48.156;11.530;2022-09-12T12:58:59;25.40;93.80
20558;DHT22;10437;48.156;11.530;2022-09-12T13:01:29;25.60;94.00
20558;DHT22;10437;48.156;11.530;2022-09-12T13:03:58;24.90;93.50
20558;DHT22;10437;48.156;11.530;2022-09-12T13:06:33;25.10;94.00
20558;DHT22;10437;48.156;11.530;2022-09-12T13:09:04;25.30;93.10
20558;DHT22;10437;48.156;11.530;2022-09-12T13:11:34;25.10;93.80
20558;DHT22;10437;48.156;11.530;2022-09-12T13:14:04;25.00;93.40
20558;DHT22;10437;48.156;11.530;2022-09-12T13:16:35;25.40;95.90
20558;DHT22;10437;48.156;11.530;2022-09-12T13:19:04;25.10;99.90
20558;DHT22;10437;48.156;11.530;2022-09-12T13:24:01;24.90;93.70
20558;DHT22;10437;48.156;11.530;2022-09-12T13:26:32;25.10;93.10
20558;DHT22;10437;48.156;11.530;2022-09-12T13:29:15;25.20;98.40
20558;DHT22;10437;48.156;11.530;2022-09-12T13:31:44;24.90;92.70
20558;DHT22;10437;48.156;11.530;2022-09-12T13:34:16;25.10;92.30
20558;DHT22;10437;48.156;11.530;2022-09-12T13:39:46;25.10;93.10
20558;DHT22;10437;48.156;11.530;2022-09-12T13:42:38;25.20;90.00
20558;DHT22;10437;48.156;11.530;2022-09-12T13:45:12;25.90;92.60
20558;DHT22;10437;48.156;11.530;2022-09-12T13:47:43;25.10;91.80
20558;DHT22;10437;48.156;11.530;2022-09-12T13:50:16;25.30;88.10
20558;DHT22;10437;48.156;11.530;2022-09-12T13:52:48;25.10;91.00
20558;DHT22;10437;48.156;11.530;2022-09-12T13:55:24;25.00;91.60
20558;DHT22;10437;48.156;11.530;2022-09-12T13:57:58;24.90;93.20
20558;DHT22;10437;48.156;11.530;2022-09-12T14:00:26;25.00;90.70
20558;DHT22;10437;48.156;11.530;2022-09-12T14:02:58;25.00;91.60
20558;DHT22;10437;48.156;11.530;2022-09-12T14:05:46;25.40;91.80
20558;DHT22;10437;48.156;11.530;2022-09-12T14:13:18;24.90;91.40
20558;DHT22;10437;48.156;11.530;2022-09-12T14:15:47;24.80;90.80
20558;DHT22;10437;48.156;11.530;2022-09-12T14:18:24;25.10;90.80
20558;DHT22;10437;48.156;11.530;2022-09-12T14:23:26;24.80;90.30
20558;DHT22;10437;48.156;11.530;2022-09-12T14:25:55;26.20;90.60
20558;DHT22;10437;48.156;11.530;2022-09-12T14:28:25;24.70;94.30
20558;DHT22;10437;48.156;11.530;2022-09-12T14:33:28;24.40;90.30
20558;DHT22;10437;48.156;11.530;2022-09-12T14:36:10;24.20;90.60
20558;DHT22;10437;48.156;11.530;2022-09-12T14:38:54;24.20;90.50
20558;DHT22;10437;48.156;11.530;2022-09-12T14:41:25;24.10;90.60
20558;DHT22;10437;48.156;11.530;2022-09-12T14:43:55;24.00;90.90
20558;DHT22;10437;48.156;11.530;2022-09-12T14:46:25;24.00;90.80
20558;DHT22;10437;48.156;11.530;2022-09-12T14:48:56;23.60;94.60
20558;DHT22;10437;48.156;11.530;2022-09-12T14:51:26;24.00;90.80
20558;DHT22;10437;48.156;11.530;2022-09-12T14:53:53;23.60;90.20
20558;DHT22;10437;48.156;11.530;2022-09-12T14:56:21;23.50;91.60
20558;DHT22;10437;48.156;11.530;2022-09-12T14:59:24;23.40;91.90
20558;DHT22;10437;48.156;11.530;2022-09-12T15:02:13;23.50;93.20
20558;DHT22;10437;48.156;11.530;2022-09-12T15:04:45;23.20;92.00
20558;DHT22;10437;48.156;11.530;2022-09-12T15:07:13;23.10;92.40
20558;DHT22;10437;48.156;11.530;2022-09-12T15:12:09;23.10;93.30
20558;DHT22;10437;48.156;11.530;2022-09-12T15:14:45;22.70;91.70
20558;DHT22;10437;48.156;11.530;2022-09-12T15:22:09;22.50;94.00
20558;DHT22;10437;48.156;11.530;2022-09-12T15:27:07;22.50;93.90
20558;DHT22;10437;48.156;11.530;2022-09-12T15:29:34;22.70;96.70
20558;DHT22;10437;48.156;11.530;2022-09-12T15:34:29;22.60;97.50
20558;DHT22;10437;48.156;11.530;2022-09-12T15:39:24;22.20;94.20
20558;DHT22;10437;48.156;11.530;2022-09-12T15:51:42;21.70;99.70
20558;DHT22;10437;48.156;11.530;2022-09-12T15:54:12;21.90;94.60
20558;DHT22;10437;48.156;11.530;2022-09-12T15:56:41;21.80;94.80
20558;DHT22;10437;48.156;11.530;2022-09-12T16:13:55;21.50;95.80
20558;DHT22;10437;48.156;11.530;2022-09-12T16:28:38;21.30;99.90
20558;DHT22;10437;48.156;11.530;2022-09-12T16:31:08;21.10;96.70
20558;DHT22;10437;48.156;11.530;2022-09-12T16:33:36;20.90;96.60
20558;DHT22;10437;48.156;11.530;2022-09-12T16:36:05;23.40;97.80
20558;DHT22;10437;48.156;11.530;2022-09-12T16:38:32;20.90;97.30
20558;DHT22;10437;48.156;11.530;2022-09-12T16:41:00;20.80;97.10
20558;DHT22;10437;48.156;11.530;2022-09-12T16:43:28;18.90;97.90
20558;DHT22;10437;48.156;11.530;2022-09-12T16:46:02;20.60;96.20
20558;DHT22;10437;48.156;11.530;2022-09-12T16:48:31;20.70;98.80
20558;DHT22;10437;48.156;11.530;2022-09-12T16:50:59;20.70;99.30
20558;DHT22;10437;48.156;11.530;2022-09-12T16:53:29;20.70;99.60
20558;DHT22;10437;48.156;11.530;2022-09-12T16:55:59;20.60;97.90
20558;DHT22;10437;48.156;11.530;2022-09-12T17:00:59;20.50;99.90
20558;DHT22;10437;48.156;11.530;2022-09-12T17:05:58;20.50;99.30
20558;DHT22;10437;48.156;11.530;2022-09-12T17:18:14;20.10;99.90
20558;DHT22;10437;48.156;11.530;2022-09-12T17:23:09;20.20;99.90
20558;DHT22;10437;48.156;11.530;2022-09-12T17:28:04;20.10;99.90
20558;DHT22;10437;48.156;11.530;2022-09-12T17:30:33;19.90;99.90
20558;DHT22;10437;48.156;11.530;2022-09-12T17:37:55;19.90;99.90
20558;DHT22;10437;48.156;11.530;2022-09-12T17:40:23;19.60;99.90
20558;DHT22;10437;48.156;11.530;2022-09-12T17:42:50;19.90;99.90
20558;DHT22;10437;48.156;11.530;2022-09-12T17:57:34;19.40;99.90
20558;DHT22;10437;48.156;11.530;2022-09-12T18:00:02;19.30;99.90
20558;DHT22;10437;48.156;11.530;2022-09-12T18:12:17;19.00;99.90
20558;DHT22;10437;48.156;11.530;2022-09-12T18:14:45;19.00;99.90
20558;DHT22;10437;48.156;11.530;2022-09-12T18:31:57;18.80;99.90
20558;DHT22;10437;48.156;11.530;2022-09-12T18:49:09;18.60;99.90
20558;DHT22;10437;48.156;11.530;2022-09-12T18:54:10;18.20;99.90
20558;DHT22;10437;48.156;11.530;2022-09-12T18:56:37;18.60;99.90
20558;DHT22;10437;48.156;11.530;2022-09-12T18:59:08;18.20;99.90
20558;DHT22;10437;48.156;11.530;2022-09-12T19:01:37;18.30;99.90
20558;DHT22;10437;48.156;11.530;2022-09-12T19:04:06;18.20;99.90
20558;DHT22;10437;48.156;11.530;2022-09-12T19:06:37;18.10;99.90
20558;DHT22;10437;48.156;11.530;2022-09-12T19:11:32;17.90;99.90
20558;DHT22;10437;48.156;11.530;2022-09-12T19:16:27;16.60;99.90
20558;DHT22;10437;48.156;11.530;2022-09-12T19:18:55;17.90;99.90
20558;DHT22;10437;48.156;11.530;2022-09-12T19:21:23;17.90;99.90
20558;DHT22;10437;48.156;11.530;2022-09-12T19:23:54;17.80;99.90
20558;DHT22;10437;48.156;11.530;2022-09-12T19:31:17;17.70;99.90
20558;DHT22;10437;48.156;11.530;2022-09-12T19:36:14;17.80;99.90
20558;DHT22;10437;48.156;11.530;2022-09-12T19:41:12;17.70;99.90
20558;DHT22;10437;48.156;11.530;2022-09-12T19:43:39;17.70;99.90
20558;DHT22;10437;48.156;11.530;2022-09-12T19:48:34;17.60;99.90
20558;DHT22;10437;48.156;11.530;2022-09-12T19:51:02;17.40;99.90
20558;DHT22;10437;48.156;11.530;2022-09-12T19:56:01;17.40;99.90
20558;DHT22;10437;48.156;11.530;2022-09-12T19:58:30;17.30;99.90
20558;DHT22;10437;48.156;11.530;2022-09-12T20:01:07;17.40;99.90
20558;DHT22;10437;48.156;11.530;2022-09-12T20:08:29;17.20;99.90
20558;DHT22;10437;48.156;11.530;2022-09-12T20:15:51;17.10;99.90
20558;DHT22;10437;48.156;11.530;2022-09-12T20:18:18;17.10;99.90
20558;DHT22;10437;48.156;11.530;2022-09-12T20:33:02;16.70;99.90
20558;DHT22;10437;48.156;11.530;2022-09-12T20:42:51;16.80;99.90
20558;DHT22;10437;48.156;11.530;2022-09-12T20:50:14;16.80;99.90
20558;DHT22;10437;48.156;11.530;2022-09-12T20:52:41;16.60;99.90
20558;DHT22;10437;48.156;11.530;2022-09-12T20:55:08;16.80;99.90
20558;DHT22;10437;48.156;11.530;2022-09-12T21:04:58;16.60;99.90
20558;DHT22;10437;48.156;11.530;2022-09-12T21:07:27;16.60;99.90
20558;DHT22;10437;48.156;11.530;2022-09-12T21:09:53;16.80;99.90
20558;DHT22;10437;48.156;11.530;2022-09-12T21:24:38;16.40;99.90
20558;DHT22;10437;48.156;11.530;2022-09-12T21:31:59;16.50;99.90
20558;DHT22;10437;48.156;11.530;2022-09-12T21:34:26;16.40;99.90
20558;DHT22;10437;48.156;11.530;2022-09-12T21:41:48;16.20;99.90
20558;DHT22;10437;48.156;11.530;2022-09-12T21:44:15;16.40;99.90
20558;DHT22;10437;48.156;11.530;2022-09-12T21:51:36;16.40;99.90
20558;DHT22;10437;48.156;11.530;2022-09-12T21:54:03;16.00;99.90
20558;DHT22;10437;48.156;11.530;2022-09-12T21:58:58;16.30;99.90
20558;DHT22;10437;48.156;11.530;2022-09-12T22:06:19;16.30;99.90
20558;DHT22;10437;48.156;11.530;2022-09-12T22:16:10;16.30;99.90
20558;DHT22;10437;48.156;11.530;2022-09-12T22:21:07;16.30;99.90
20558;DHT22;10437;48.156;11.530;2022-09-12T22:23:34;16.40;99.90
20558;DHT22;10437;48.156;11.530;2022-09-12T22:31:16;16.10;99.90
20558;DHT22;10437;48.156;11.530;2022-09-12T22:36:11;16.30;99.90
20558;DHT22;10437;48.156;11.530;2022-09-12T22:38:38;16.30;99.90
20558;DHT22;10437;48.156;11.530;2022-09-12T22:41:06;16.40;99.90
20558;DHT22;10437;48.156;11.530;2022-09-12T22:43:35;16.20;99.90
20558;DHT22;10437;48.156;11.530;2022-09-12T22:46:05;16.20;99.90
20558;DHT22;10437;48.156;11.530;2022-09-12T22:48:33;16.20;99.90
20558;DHT22;10437;48.156;11.530;2022-09-12T23:00:49;16.00;99.90
20558;DHT22;10437;48.156;11.530;2022-09-12T23:03:16;16.00;99.90
20558;DHT22;10437;48.156;11.530;2022-09-12T23:05:46;16.10;99.90
20558;DHT22;10437;48.156;11.530;2022-09-12T23:08:13;16.00;99.90
20558;DHT22;10437;48.156;11.530;2022-09-12T23:13:08;16.10;99.90
20558;DHT22;10437;48.156;11.530;2022-09-12T23:18:03;16.10;99.90
20558;DHT22;10437;48.156;11.530;2022-09-12T23:20:29;15.80;99.90
20558;DHT22;10437;48.156;11.530;2022-09-12T23:22:58;15.80;99.90